sensor_id;sensor_type;location;lat;lon;timestamp;pressure;altitude;pressure_sealevel;temperature;humidity
23253;BME280;11795;47.054;15.408;2023-04-01T00:00:00;96130;;;9.1;85.2
23253;BME280;11795;47.054;15.408;2023-04-01T00:02:00;96130;;;9.3;84.7
23253;BME280;11795;47.054;15.408;2023-04-01T00:04:02;96120;;;9.1;85.1
23253;BME280;11795;47.054;15.408;2023-04-01T00:06:01;96120;;;9.3;84.9
23253;BME280;11795;47.054;15.408;2023-04-01T00:08:00;96120;;;9.2;85.1
23253;BME280;11795;47.054;15.408;2023-04-01T00:10:00;96120;;;9.1;85.4
23253;BME280;11795;47.054;15.408;2023-04-01T00:12:00;96120;;;9.2;84.7
23253;BME280;11795;47.054;15.408;2023-04-01T00:14:00;96110;;;9.0;85.5
23253;BME280;11795;47.054;15.408;2023-04-01T00:16:02;96110;;;9.3;85.0
23253;BME280;11795;47.054;15.408;2023-04-01T00:18:01;96110;;;9.1;84.9
23253;BME280;11795;47.054;15.408;2023-04-01T00:20:01;96110;;;9.1;85.2
23253;BME280;11795;47.054;15.408;2023-04-01T00:22:00;96110;;;9.2;84.4
23253;BME280;11795;47.054;15.408;2023-04-01T00:24:00;96110;;;9.1;84.6
23253;BME280;11795;47.054;15.408;2023-04-01T00:26:02;96100;;;9.3;84.2
23253;BME280;11795;47.054;15.408;2023-04-01T00:28:00;96100;;;9.1;84.2
23253;BME280;11795;47.054;15.408;2023-04-01T00:30:01;96100;;;9.0;84.6
23253;BME280;11795;47.054;15.408;2023-04-01T00:32:00;96100;;;9.2;83.8
23253;BME280;11795;47.054;15.408;2023-04-01T00:34:00;96110;;;9.0;84.5
23253;BME280;11795;47.054;15.408;2023-04-01T00:36:10;96110;;;9.2;84.3
23253;BME280;11795;47.054;15.408;2023-04-01T00:38:00;96100;;;9.0;85.0
23253;BME280;11795;47.054;15.408;2023-04-01T00:40:00;96100;;;8.9;85.9
23253;BME280;11795;47.054;15.408;2023-04-01T00:42:02;96090;;;9.1;85.0
23253;BME280;11795;47.054;15.408;2023-04-01T00:44:14;96090;;;8.9;85.5
23253;BME280;11795;47.054;15.408;2023-04-01T00:46:01;96090;;;9.1;85.0
23253;BME280;11795;47.054;15.408;2023-04-01T00:48:04;96090;;;9.0;85.4
23253;BME280;11795;47.054;15.408;2023-04-01T00:50:00;96090;;;8.8;86.3
23253;BME280;11795;47.054;15.408;2023-04-01T00:52:02;96090;;;9.0;85.7
23253;BME280;11795;47.054;15.408;2023-04-01T00:54:02;96080;;;8.9;86.2
23253;BME280;11795;47.054;15.408;2023-04-01T00:56:04;96080;;;9.0;86.3
23253;BME280;11795;47.054;15.408;2023-04-01T00:58:02;96080;;;8.7;87.3
23253;BME280;11795;47.054;15.408;2023-04-01T01:00:00;96070;;;8.7;87.4
23253;BME280;11795;47.054;15.408;2023-04-01T01:02:01;96060;;;8.8;86.5
23253;BME280;11795;47.054;15.408;2023-04-01T01:04:02;96060;;;8.8;86.9
23253;BME280;11795;47.054;15.408;2023-04-01T01:06:10;96060;;;8.9;86.4
23253;BME280;11795;47.054;15.408;2023-04-01T01:08:06;96060;;;8.8;86.2
23253;BME280;11795;47.054;15.408;2023-04-01T01:10:03;96060;;;8.8;86.5
23253;BME280;11795;47.054;15.408;2023-04-01T01:12:07;96060;;;8.9;85.6
23253;BME280;11795;47.054;15.408;2023-04-01T01:14:06;96060;;;8.8;86.0
23253;BME280;11795;47.054;15.408;2023-04-01T01:16:04;96060;;;8.9;86.0
23253;BME280;11795;47.054;15.408;2023-04-01T01:18:05;96060;;;8.8;86.0
23253;BME280;11795;47.054;15.408;2023-04-01T01:20:21;96060;;;8.7;86.2
23253;BME280;11795;47.054;15.408;2023-04-01T01:22:12;96060;;;8.8;85.5
23253;BME280;11795;47.054;15.408;2023-04-01T01:24:13;96060;;;8.7;85.9
23253;BME280;11795;47.054;15.408;2023-04-01T01:26:13;96060;;;8.8;85.9
23253;BME280;11795;47.054;15.408;2023-04-01T01:28:13;96060;;;8.6;86.2
23253;BME280;11795;47.054;15.408;2023-04-01T01:32:10;96060;;;8.7;86.0
23253;BME280;11795;47.054;15.408;2023-04-01T01:34:11;96060;;;8.6;86.6
23253;BME280;11795;47.054;15.408;2023-04-01T01:36:04;96060;;;8.7;86.7
23253;BME280;11795;47.054;15.408;2023-04-01T01:38:03;96060;;;8.6;86.8
23253;BME280;11795;47.054;15.408;2023-04-01T01:40:03;96050;;;8.5;87.2
23253;BME280;11795;47.054;15.408;2023-04-01T01:42:04;96040;;;8.6;86.6
23253;BME280;11795;47.054;15.408;2023-04-01T01:44:02;96040;;;8.5;87.0
23253;BME280;11795;47.054;15.408;2023-04-01T01:46:04;96040;;;8.8;86.8
23253;BME280;11795;47.054;15.408;2023-04-01T01:48:02;96040;;;8.6;86.8
23253;BME280;11795;47.054;15.408;2023-04-01T01:50:02;96040;;;8.5;87.3
23253;BME280;11795;47.054;15.408;2023-04-01T01:52:00;96040;;;8.7;86.7
23253;BME280;11795;47.054;15.408;2023-04-01T01:54:00;96040;;;8.5;87.2
23253;BME280;11795;47.054;15.408;2023-04-01T01:56:01;96030;;;8.6;87.2
23253;BME280;11795;47.054;15.408;2023-04-01T01:58:04;96030;;;8.5;87.2
23253;BME280;11795;47.054;15.408;2023-04-01T02:00:04;96020;;;8.4;87.6
23253;BME280;11795;47.054;15.408;2023-04-01T02:02:02;96020;;;8.5;86.9
23253;BME280;11795;47.054;15.408;2023-04-01T02:04:02;96010;;;8.4;87.5
23253;BME280;11795;47.054;15.408;2023-04-01T02:06:03;96010;;;8.5;87.5
23253;BME280;11795;47.054;15.408;2023-04-01T02:08:04;96010;;;8.4;87.2
23253;BME280;11795;47.054;15.408;2023-04-01T02:10:00;96020;;;8.3;87.6
23253;BME280;11795;47.054;15.408;2023-04-01T02:12:03;96010;;;8.5;87.0
23253;BME280;11795;47.054;15.408;2023-04-01T02:14:05;96020;;;8.4;87.3
23253;BME280;11795;47.054;15.408;2023-04-01T02:16:05;96030;;;8.5;87.3
23253;BME280;11795;47.054;15.408;2023-04-01T02:18:01;96030;;;8.3;87.2
23253;BME280;11795;47.054;15.408;2023-04-01T02:20:04;96030;;;8.2;87.8
23253;BME280;11795;47.054;15.408;2023-04-01T02:22:03;96020;;;8.3;87.8
23253;BME280;11795;47.054;15.408;2023-04-01T02:24:02;96010;;;8.2;88.0
23253;BME280;11795;47.054;15.408;2023-04-01T02:26:01;96010;;;8.3;87.8
23253;BME280;11795;47.054;15.408;2023-04-01T02:28:02;96020;;;8.2;87.7
23253;BME280;11795;47.054;15.408;2023-04-01T02:30:00;96020;;;8.1;88.2
23253;BME280;11795;47.054;15.408;2023-04-01T02:32:01;96020;;;8.3;87.4
23253;BME280;11795;47.054;15.408;2023-04-01T02:34:03;96020;;;8.2;87.8
23253;BME280;11795;47.054;15.408;2023-04-01T02:36:00;96020;;;8.3;87.7
23253;BME280;11795;47.054;15.408;2023-04-01T02:38:01;96030;;;8.1;87.6
23253;BME280;11795;47.054;15.408;2023-04-01T02:40:01;96030;;;8.1;87.9
23253;BME280;11795;47.054;15.408;2023-04-01T02:42:00;96030;;;8.2;87.2
23253;BME280;11795;47.054;15.408;2023-04-01T02:44:00;96030;;;8.0;87.7
23253;BME280;11795;47.054;15.408;2023-04-01T02:46:01;96030;;;8.2;87.7
23253;BME280;11795;47.054;15.408;2023-04-01T02:48:00;96030;;;8.1;87.4
23253;BME280;11795;47.054;15.408;2023-04-01T02:50:00;96030;;;7.9;88.0
23253;BME280;11795;47.054;15.408;2023-04-01T02:52:00;96030;;;7.9;88.8
23253;BME280;11795;47.054;15.408;2023-04-01T02:54:00;96030;;;7.8;89.3
23253;BME280;11795;47.054;15.408;2023-04-01T02:56:00;96040;;;7.8;90.4
23253;BME280;11795;47.054;15.408;2023-04-01T02:58:01;96040;;;7.8;90.3
23253;BME280;11795;47.054;15.408;2023-04-01T03:00:00;96040;;;7.7;90.9
23253;BME280;11795;47.054;15.408;2023-04-01T03:02:00;96040;;;7.9;90.0
23253;BME280;11795;47.054;15.408;2023-04-01T03:04:01;96030;;;7.8;90.0
23253;BME280;11795;47.054;15.408;2023-04-01T03:06:05;96030;;;7.9;89.9
23253;BME280;11795;47.054;15.408;2023-04-01T03:08:00;96030;;;7.9;89.7
23253;BME280;11795;47.054;15.408;2023-04-01T03:10:00;96030;;;7.8;90.1
23253;BME280;11795;47.054;15.408;2023-04-01T03:12:01;96030;;;8.0;89.4
23253;BME280;11795;47.054;15.408;2023-04-01T03:14:00;96040;;;7.9;89.3
23253;BME280;11795;47.054;15.408;2023-04-01T03:16:00;96050;;;8.0;89.2
23253;BME280;11795;47.054;15.408;2023-04-01T03:18:00;96050;;;7.9;89.0
23253;BME280;11795;47.054;15.408;2023-04-01T03:20:00;96050;;;7.8;89.6
23253;BME280;11795;47.054;15.408;2023-04-01T03:22:00;96050;;;8.0;89.6
23253;BME280;11795;47.054;15.408;2023-04-01T03:24:00;96050;;;7.8;89.6
23253;BME280;11795;47.054;15.408;2023-04-01T03:26:00;96060;;;7.9;89.7
23253;BME280;11795;47.054;15.408;2023-04-01T03:28:01;96060;;;7.9;89.2
23253;BME280;11795;47.054;15.408;2023-04-01T03:30:00;96060;;;7.8;89.6
23253;BME280;11795;47.054;15.408;2023-04-01T03:32:00;96060;;;8.0;88.9
23253;BME280;11795;47.054;15.408;2023-04-01T03:34:00;96070;;;7.9;89.1
23253;BME280;11795;47.054;15.408;2023-04-01T03:36:00;96070;;;7.9;89.2
23253;BME280;11795;47.054;15.408;2023-04-01T03:38:00;96070;;;7.8;89.0
23253;BME280;11795;47.054;15.408;2023-04-01T03:40:00;96070;;;7.8;89.5
23253;BME280;11795;47.054;15.408;2023-04-01T03:42:00;96070;;;7.9;88.9
23253;BME280;11795;47.054;15.408;2023-04-01T03:44:00;96070;;;7.8;89.5
23253;BME280;11795;47.054;15.408;2023-04-01T03:46:00;96070;;;7.8;89.8
23253;BME280;11795;47.054;15.408;2023-04-01T03:48:00;96070;;;7.8;89.5
23253;BME280;11795;47.054;15.408;2023-04-01T03:50:00;96080;;;7.7;89.9
23253;BME280;11795;47.054;15.408;2023-04-01T03:52:00;96080;;;7.8;89.4
23253;BME280;11795;47.054;15.408;2023-04-01T03:54:00;96080;;;7.7;90.0
23253;BME280;11795;47.054;15.408;2023-04-01T03:56:03;96080;;;7.8;90.1
23253;BME280;11795;47.054;15.408;2023-04-01T03:58:02;96080;;;7.8;89.5
23253;BME280;11795;47.054;15.408;2023-04-01T04:00:00;96080;;;7.8;89.6
23253;BME280;11795;47.054;15.408;2023-04-01T04:02:01;96080;;;7.9;88.9
23253;BME280;11795;47.054;15.408;2023-04-01T04:04:00;96090;;;7.7;89.5
23253;BME280;11795;47.054;15.408;2023-04-01T04:06:00;96090;;;7.8;89.9
23253;BME280;11795;47.054;15.408;2023-04-01T04:08:00;96090;;;7.8;89.5
23253;BME280;11795;47.054;15.408;2023-04-01T04:10:00;96090;;;7.7;90.0
23253;BME280;11795;47.054;15.408;2023-04-01T04:12:01;96090;;;7.9;89.4
23253;BME280;11795;47.054;15.408;2023-04-01T04:14:01;96100;;;7.8;89.8
23253;BME280;11795;47.054;15.408;2023-04-01T04:16:00;96100;;;7.8;90.0
23253;BME280;11795;47.054;15.408;2023-04-01T04:18:00;96100;;;7.8;89.4
23253;BME280;11795;47.054;15.408;2023-04-01T04:20:01;96100;;;7.7;89.9
23253;BME280;11795;47.054;15.408;2023-04-01T04:22:01;96090;;;7.9;89.3
23253;BME280;11795;47.054;15.408;2023-04-01T04:24:01;96090;;;7.8;89.4
23253;BME280;11795;47.054;15.408;2023-04-01T04:26:03;96100;;;7.8;89.6
23253;BME280;11795;47.054;15.408;2023-04-01T04:28:00;96100;;;7.8;89.4
23253;BME280;11795;47.054;15.408;2023-04-01T04:30:00;96100;;;7.7;89.9
23253;BME280;11795;47.054;15.408;2023-04-01T04:32:00;96090;;;7.9;89.4
23253;BME280;11795;47.054;15.408;2023-04-01T04:34:00;96090;;;7.8;89.6
23253;BME280;11795;47.054;15.408;2023-04-01T04:36:01;96090;;;7.8;89.9
23253;BME280;11795;47.054;15.408;2023-04-01T04:38:00;96080;;;7.8;89.3
23253;BME280;11795;47.054;15.408;2023-04-01T04:40:00;96090;;;7.7;89.8
23253;BME280;11795;47.054;15.408;2023-04-01T04:42:00;96080;;;7.9;89.2
23253;BME280;11795;47.054;15.408;2023-04-01T04:44:00;96090;;;7.7;89.5
23253;BME280;11795;47.054;15.408;2023-04-01T04:46:04;96080;;;7.7;89.8
23253;BME280;11795;47.054;15.408;2023-04-01T04:48:01;96080;;;7.8;89.3
23253;BME280;11795;47.054;15.408;2023-04-01T04:50:00;96080;;;7.7;89.8
23253;BME280;11795;47.054;15.408;2023-04-01T04:52:00;96080;;;7.9;89.2
23253;BME280;11795;47.054;15.408;2023-04-01T04:54:00;96080;;;7.8;89.4
23253;BME280;11795;47.054;15.408;2023-04-01T04:56:00;96080;;;7.7;89.6
23253;BME280;11795;47.054;15.408;2023-04-01T04:58:00;96080;;;7.8;89.0
23253;BME280;11795;47.054;15.408;2023-04-01T05:00:00;96070;;;7.7;89.3
23253;BME280;11795;47.054;15.408;2023-04-01T05:02:01;96070;;;7.9;88.9
23253;BME280;11795;47.054;15.408;2023-04-01T05:04:00;96070;;;7.8;88.7
23253;BME280;11795;47.054;15.408;2023-04-01T05:06:00;96090;;;7.8;89.2
23253;BME280;11795;47.054;15.408;2023-04-01T05:08:00;96090;;;7.8;88.9
23253;BME280;11795;47.054;15.408;2023-04-01T05:10:00;96080;;;7.7;89.4
23253;BME280;11795;47.054;15.408;2023-04-01T05:12:00;96080;;;7.8;89.7
23253;BME280;11795;47.054;15.408;2023-04-01T05:14:00;96080;;;7.8;90.0
23253;BME280;11795;47.054;15.408;2023-04-01T05:16:00;96090;;;7.8;90.3
23253;BME280;11795;47.054;15.408;2023-04-01T05:18:00;96090;;;7.9;89.5
23253;BME280;11795;47.054;15.408;2023-04-01T05:20:01;96090;;;7.9;89.8
23253;BME280;11795;47.054;15.408;2023-04-01T05:22:00;96090;;;8.1;89.0
23253;BME280;11795;47.054;15.408;2023-04-01T05:24:00;96090;;;8.0;89.3
23253;BME280;11795;47.054;15.408;2023-04-01T05:26:02;96090;;;8.0;89.4
23253;BME280;11795;47.054;15.408;2023-04-01T05:28:00;96090;;;8.1;88.5
23253;BME280;11795;47.054;15.408;2023-04-01T05:30:00;96090;;;8.1;88.9
23253;BME280;11795;47.054;15.408;2023-04-01T05:32:00;96100;;;8.2;88.2
23253;BME280;11795;47.054;15.408;2023-04-01T05:34:00;96090;;;8.1;88.5
23253;BME280;11795;47.054;15.408;2023-04-01T05:36:09;96090;;;8.1;88.7
23253;BME280;11795;47.054;15.408;2023-04-01T05:38:00;96100;;;8.2;87.8
23253;BME280;11795;47.054;15.408;2023-04-01T05:40:00;96100;;;8.2;88.1
23253;BME280;11795;47.054;15.408;2023-04-01T05:42:00;96100;;;8.4;87.6
23253;BME280;11795;47.054;15.408;2023-04-01T05:44:00;96100;;;8.2;87.4
23253;BME280;11795;47.054;15.408;2023-04-01T05:46:00;96100;;;8.2;87.5
23253;BME280;11795;47.054;15.408;2023-04-01T05:48:01;96100;;;8.3;86.9
23253;BME280;11795;47.054;15.408;2023-04-01T05:50:00;96100;;;8.3;87.4
23253;BME280;11795;47.054;15.408;2023-04-01T05:52:00;96100;;;8.5;86.9
23253;BME280;11795;47.054;15.408;2023-04-01T05:54:00;96100;;;8.3;87.1
23253;BME280;11795;47.054;15.408;2023-04-01T05:56:02;96100;;;8.3;87.4
23253;BME280;11795;47.054;15.408;2023-04-01T05:58:00;96100;;;8.4;86.5
23253;BME280;11795;47.054;15.408;2023-04-01T06:00:00;96100;;;8.4;86.9
23253;BME280;11795;47.054;15.408;2023-04-01T06:02:01;96100;;;8.6;86.0
23253;BME280;11795;47.054;15.408;2023-04-01T06:04:00;96100;;;8.5;86.4
23253;BME280;11795;47.054;15.408;2023-04-01T06:06:02;96100;;;8.5;86.2
23253;BME280;11795;47.054;15.408;2023-04-01T06:08:06;96100;;;8.7;85.3
23253;BME280;11795;47.054;15.408;2023-04-01T06:10:00;96100;;;8.6;85.6
23253;BME280;11795;47.054;15.408;2023-04-01T06:14:11;96090;;;8.7;84.9
23253;BME280;11795;47.054;15.408;2023-04-01T06:16:08;96100;;;8.7;85.1
23253;BME280;11795;47.054;15.408;2023-04-01T06:20:04;96090;;;8.9;84.7
23253;BME280;11795;47.054;15.408;2023-04-01T06:22:12;96090;;;9.1;83.5
23253;BME280;11795;47.054;15.408;2023-04-01T06:24:11;96080;;;9.1;83.7
23253;BME280;11795;47.054;15.408;2023-04-01T06:26:13;96090;;;9.1;83.5
23253;BME280;11795;47.054;15.408;2023-04-01T06:28:13;96090;;;9.3;82.7
23253;BME280;11795;47.054;15.408;2023-04-01T06:30:04;96090;;;9.3;82.6
23253;BME280;11795;47.054;15.408;2023-04-01T06:32:09;96100;;;9.6;81.9
23253;BME280;11795;47.054;15.408;2023-04-01T06:34:13;96100;;;9.5;81.7
23253;BME280;11795;47.054;15.408;2023-04-01T06:36:13;96100;;;9.6;81.6
23253;BME280;11795;47.054;15.408;2023-04-01T06:38:11;96100;;;9.8;80.1
23253;BME280;11795;47.054;15.408;2023-04-01T06:40:13;96100;;;9.9;80.4
23253;BME280;11795;47.054;15.408;2023-04-01T06:42:11;96100;;;10.1;79.0
23253;BME280;11795;47.054;15.408;2023-04-01T06:44:13;96090;;;10.0;79.3
23253;BME280;11795;47.054;15.408;2023-04-01T06:46:06;96090;;;10.0;79.0
23253;BME280;11795;47.054;15.408;2023-04-01T06:48:11;96100;;;10.1;77.4
23253;BME280;11795;47.054;15.408;2023-04-01T06:50:05;96100;;;10.1;77.9
23253;BME280;11795;47.054;15.408;2023-04-01T06:52:09;96100;;;10.3;76.3
23253;BME280;11795;47.054;15.408;2023-04-01T06:54:04;96110;;;10.2;77.5
23253;BME280;11795;47.054;15.408;2023-04-01T06:56:04;96110;;;10.2;77.6
23253;BME280;11795;47.054;15.408;2023-04-01T06:58:03;96120;;;10.4;76.8
23253;BME280;11795;47.054;15.408;2023-04-01T07:00:03;96120;;;10.3;76.6
23253;BME280;11795;47.054;15.408;2023-04-01T07:02:05;96120;;;10.5;76.2
23253;BME280;11795;47.054;15.408;2023-04-01T07:04:05;96120;;;10.4;75.7
23253;BME280;11795;47.054;15.408;2023-04-01T07:06:03;96120;;;10.3;76.1
23253;BME280;11795;47.054;15.408;2023-04-01T07:08:02;96120;;;10.4;75.2
23253;BME280;11795;47.054;15.408;2023-04-01T07:10:05;96130;;;10.4;76.1
23253;BME280;11795;47.054;15.408;2023-04-01T07:12:02;96130;;;10.7;75.3
23253;BME280;11795;47.054;15.408;2023-04-01T07:14:02;96130;;;10.6;75.3
23253;BME280;11795;47.054;15.408;2023-04-01T07:16:08;96130;;;10.7;75.8
23253;BME280;11795;47.054;15.408;2023-04-01T07:18:04;96130;;;11.0;74.2
23253;BME280;11795;47.054;15.408;2023-04-01T07:20:03;96140;;;11.1;73.8
23253;BME280;11795;47.054;15.408;2023-04-01T07:22:03;96130;;;11.3;72.2
23253;BME280;11795;47.054;15.408;2023-04-01T07:24:05;96140;;;11.3;72.4
23253;BME280;11795;47.054;15.408;2023-04-01T07:26:05;96140;;;11.1;72.0
23253;BME280;11795;47.054;15.408;2023-04-01T07:28:03;96140;;;11.2;72.0
23253;BME280;11795;47.054;15.408;2023-04-01T07:30:03;96140;;;11.0;72.3
23253;BME280;11795;47.054;15.408;2023-04-01T07:32:14;96140;;;11.3;72.3
23253;BME280;11795;47.054;15.408;2023-04-01T07:34:05;96130;;;11.2;71.7
23253;BME280;11795;47.054;15.408;2023-04-01T07:36:05;96130;;;11.4;71.8
23253;BME280;11795;47.054;15.408;2023-04-01T07:38:11;96130;;;11.7;70.6
23253;BME280;11795;47.054;15.408;2023-04-01T07:40:10;96130;;;12.1;70.0
23253;BME280;11795;47.054;15.408;2023-04-01T07:42:06;96130;;;12.6;68.9
23253;BME280;11795;47.054;15.408;2023-04-01T07:44:07;96130;;;12.7;66.9
23253;BME280;11795;47.054;15.408;2023-04-01T07:46:07;96130;;;12.8;67.5
23253;BME280;11795;47.054;15.408;2023-04-01T07:48:10;96140;;;13.2;67.1
23253;BME280;11795;47.054;15.408;2023-04-01T07:50:09;96140;;;13.4;66.6
23253;BME280;11795;47.054;15.408;2023-04-01T07:52:05;96140;;;13.9;66.0
23253;BME280;11795;47.054;15.408;2023-04-01T07:54:06;96140;;;14.1;64.0
23253;BME280;11795;47.054;15.408;2023-04-01T07:56:05;96130;;;14.2;63.0
23253;BME280;11795;47.054;15.408;2023-04-01T07:58:04;96140;;;14.1;62.8
23253;BME280;11795;47.054;15.408;2023-04-01T08:00:06;96140;;;14.3;63.1
23253;BME280;11795;47.054;15.408;2023-04-01T08:02:07;96140;;;14.1;61.8
23253;BME280;11795;47.054;15.408;2023-04-01T08:04:14;96140;;;14.2;61.4
23253;BME280;11795;47.054;15.408;2023-04-01T08:06:07;96140;;;14.4;62.5
23253;BME280;11795;47.054;15.408;2023-04-01T08:08:06;96140;;;14.9;60.7
23253;BME280;11795;47.054;15.408;2023-04-01T08:10:07;96130;;;14.9;60.6
23253;BME280;11795;47.054;15.408;2023-04-01T08:12:10;96130;;;14.9;60.0
23253;BME280;11795;47.054;15.408;2023-04-01T08:14:07;96130;;;14.9;61.0
23253;BME280;11795;47.054;15.408;2023-04-01T08:16:08;96130;;;15.1;60.3
23253;BME280;11795;47.054;15.408;2023-04-01T08:18:05;96130;;;15.4;57.6
23253;BME280;11795;47.054;15.408;2023-04-01T08:20:12;96130;;;15.4;58.4
23253;BME280;11795;47.054;15.408;2023-04-01T08:22:09;96140;;;15.7;58.4
23253;BME280;11795;47.054;15.408;2023-04-01T08:24:07;96140;;;15.7;58.5
23253;BME280;11795;47.054;15.408;2023-04-01T08:26:04;96130;;;15.6;57.7
23253;BME280;11795;47.054;15.408;2023-04-01T08:28:08;96130;;;15.6;56.5
23253;BME280;11795;47.054;15.408;2023-04-01T08:30:04;96130;;;15.6;57.2
23253;BME280;11795;47.054;15.408;2023-04-01T08:32:03;96130;;;15.7;56.9
23253;BME280;11795;47.054;15.408;2023-04-01T08:34:02;96130;;;15.5;57.8
23253;BME280;11795;47.054;15.408;2023-04-01T08:36:03;96140;;;15.5;58.0
23253;BME280;11795;47.054;15.408;2023-04-01T08:38:04;96140;;;15.5;57.7
23253;BME280;11795;47.054;15.408;2023-04-01T08:40:16;96140;;;15.4;58.5
23253;BME280;11795;47.054;15.408;2023-04-01T08:44:14;96140;;;15.3;58.4
23253;BME280;11795;47.054;15.408;2023-04-01T08:46:12;96140;;;15.1;59.0
23253;BME280;11795;47.054;15.408;2023-04-01T08:48:15;96140;;;15.1;59.4
23253;BME280;11795;47.054;15.408;2023-04-01T08:52:14;96140;;;15.3;59.0
23253;BME280;11795;47.054;15.408;2023-04-01T08:54:12;96140;;;15.1;59.7
23253;BME280;11795;47.054;15.408;2023-04-01T08:56:08;96140;;;15.0;59.5
23253;BME280;11795;47.054;15.408;2023-04-01T08:58:16;96150;;;15.1;59.3
23253;BME280;11795;47.054;15.408;2023-04-01T09:00:14;96140;;;15.0;59.7
23253;BME280;11795;47.054;15.408;2023-04-01T09:02:18;96150;;;15.2;58.6
23253;BME280;11795;47.054;15.408;2023-04-01T09:04:14;96140;;;15.1;58.7
23253;BME280;11795;47.054;15.408;2023-04-01T09:08:08;96150;;;15.5;57.5
23253;BME280;11795;47.054;15.408;2023-04-01T09:14:16;96150;;;15.7;57.5
23253;BME280;11795;47.054;15.408;2023-04-01T09:16:09;96150;;;15.6;56.6
23253;BME280;11795;47.054;15.408;2023-04-01T09:18:16;96150;;;15.7;56.5
23253;BME280;11795;47.054;15.408;2023-04-01T09:20:19;96160;;;15.8;56.9
23253;BME280;11795;47.054;15.408;2023-04-01T09:22:15;96160;;;16.0;55.9
23253;BME280;11795;47.054;15.408;2023-04-01T09:24:18;96160;;;16.1;56.4
23253;BME280;11795;47.054;15.408;2023-04-01T09:26:12;96150;;;16.1;55.2
23253;BME280;11795;47.054;15.408;2023-04-01T09:28:09;96160;;;16.0;54.5
23253;BME280;11795;47.054;15.408;2023-04-01T09:30:18;96160;;;15.8;55.4
23253;BME280;11795;47.054;15.408;2023-04-01T09:32:13;96160;;;15.9;53.4
23253;BME280;11795;47.054;15.408;2023-04-01T09:34:15;96160;;;15.7;55.0
23253;BME280;11795;47.054;15.408;2023-04-01T09:36:04;96160;;;15.6;55.0
23253;BME280;11795;47.054;15.408;2023-04-01T09:38:11;96160;;;15.8;54.8
23253;BME280;11795;47.054;15.408;2023-04-01T09:40:18;96170;;;15.7;54.8
23253;BME280;11795;47.054;15.408;2023-04-01T09:42:14;96160;;;15.9;53.9
23253;BME280;11795;47.054;15.408;2023-04-01T09:44:03;96160;;;15.9;54.2
23253;BME280;11795;47.054;15.408;2023-04-01T09:46:12;96160;;;16.0;54.1
23253;BME280;11795;47.054;15.408;2023-04-01T09:48:08;96170;;;16.0;54.3
23253;BME280;11795;47.054;15.408;2023-04-01T09:50:17;96170;;;16.0;54.8
23253;BME280;11795;47.054;15.408;2023-04-01T09:52:10;96170;;;16.0;54.8
23253;BME280;11795;47.054;15.408;2023-04-01T09:54:11;96170;;;16.0;55.0
23253;BME280;11795;47.054;15.408;2023-04-01T09:58:15;96170;;;16.2;54.9
23253;BME280;11795;47.054;15.408;2023-04-01T10:00:15;96170;;;16.0;53.2
23253;BME280;11795;47.054;15.408;2023-04-01T10:02:19;96170;;;15.9;50.6
23253;BME280;11795;47.054;15.408;2023-04-01T10:10:19;96170;;;15.5;46.7
23253;BME280;11795;47.054;15.408;2023-04-01T10:12:17;96170;;;15.6;46.6
23253;BME280;11795;47.054;15.408;2023-04-01T10:14:14;96160;;;15.6;43.1
23253;BME280;11795;47.054;15.408;2023-04-01T10:16:19;96170;;;15.5;43.4
23253;BME280;11795;47.054;15.408;2023-04-01T10:18:16;96170;;;15.6;43.8
23253;BME280;11795;47.054;15.408;2023-04-01T10:22:16;96170;;;15.6;43.8
23253;BME280;11795;47.054;15.408;2023-04-01T10:24:17;96170;;;15.8;43.2
23253;BME280;11795;47.054;15.408;2023-04-01T10:26:17;96170;;;15.7;43.3
23253;BME280;11795;47.054;15.408;2023-04-01T10:28:09;96170;;;16.0;43.5
23253;BME280;11795;47.054;15.408;2023-04-01T10:30:18;96170;;;15.9;43.6
23253;BME280;11795;47.054;15.408;2023-04-01T10:32:15;96170;;;16.0;43.5
23253;BME280;11795;47.054;15.408;2023-04-01T10:34:19;96170;;;16.1;43.1
23253;BME280;11795;47.054;15.408;2023-04-01T10:38:19;96170;;;16.2;42.4
23253;BME280;11795;47.054;15.408;2023-04-01T10:42:15;96170;;;16.1;42.3
23253;BME280;11795;47.054;15.408;2023-04-01T10:44:17;96170;;;16.1;41.5
23253;BME280;11795;47.054;15.408;2023-04-01T10:46:17;96170;;;16.0;41.8
23253;BME280;11795;47.054;15.408;2023-04-01T10:48:12;96160;;;16.2;41.5
23253;BME280;11795;47.054;15.408;2023-04-01T10:50:15;96170;;;16.1;41.7
23253;BME280;11795;47.054;15.408;2023-04-01T10:54:14;96160;;;16.2;40.9
23253;BME280;11795;47.054;15.408;2023-04-01T10:58:16;96160;;;16.2;41.6
23253;BME280;11795;47.054;15.408;2023-04-01T11:00:18;96160;;;16.1;41.9
23253;BME280;11795;47.054;15.408;2023-04-01T11:02:12;96160;;;16.2;42.2
23253;BME280;11795;47.054;15.408;2023-04-01T11:04:20;96160;;;16.2;41.8
23253;BME280;11795;47.054;15.408;2023-04-01T11:14:16;96160;;;16.2;41.4
23253;BME280;11795;47.054;15.408;2023-04-01T11:18:17;96160;;;16.5;41.2
23253;BME280;11795;47.054;15.408;2023-04-01T11:20:15;96160;;;16.5;41.5
23253;BME280;11795;47.054;15.408;2023-04-01T11:24:11;96160;;;16.6;41.1
23253;BME280;11795;47.054;15.408;2023-04-01T11:26:06;96160;;;16.5;41.3
23253;BME280;11795;47.054;15.408;2023-04-01T11:28:15;96160;;;16.7;41.3
23253;BME280;11795;47.054;15.408;2023-04-01T11:30:06;96160;;;16.7;41.8
23253;BME280;11795;47.054;15.408;2023-04-01T11:32:08;96160;;;16.7;41.6
23253;BME280;11795;47.054;15.408;2023-04-01T11:34:11;96160;;;16.8;41.2
23253;BME280;11795;47.054;15.408;2023-04-01T11:36:11;96160;;;16.7;41.3
23253;BME280;11795;47.054;15.408;2023-04-01T11:38:10;96160;;;16.9;40.5
23253;BME280;11795;47.054;15.408;2023-04-01T11:40:10;96160;;;16.8;40.4
23253;BME280;11795;47.054;15.408;2023-04-01T11:42:12;96160;;;16.6;40.5
23253;BME280;11795;47.054;15.408;2023-04-01T11:44:14;96150;;;16.8;40.7
23253;BME280;11795;47.054;15.408;2023-04-01T11:46:09;96150;;;16.9;39.9
23253;BME280;11795;47.054;15.408;2023-04-01T11:48:15;96150;;;17.0;39.9
23253;BME280;11795;47.054;15.408;2023-04-01T11:50:14;96150;;;16.9;40.0
23253;BME280;11795;47.054;15.408;2023-04-01T11:52:10;96140;;;16.9;39.2
23253;BME280;11795;47.054;15.408;2023-04-01T11:54:07;96140;;;16.9;38.9
23253;BME280;11795;47.054;15.408;2023-04-01T11:56:10;96150;;;16.8;39.1
23253;BME280;11795;47.054;15.408;2023-04-01T11:58:13;96150;;;17.0;39.2
23253;BME280;11795;47.054;15.408;2023-04-01T12:02:08;96150;;;16.9;38.9
23253;BME280;11795;47.054;15.408;2023-04-01T12:06:05;96150;;;17.0;38.8